sensor_id;sensor_type;location;lat;lon;timestamp;temperature;humidity
6879;DHT22;3478;51.462;7.338;2023-07-22T00:03:19;14.50;99.90
6879;DHT22;3478;51.462;7.338;2023-07-22T00:08:21;14.40;99.90
6879;DHT22;3478;51.462;7.338;2023-07-22T00:13:23;14.30;99.90
6879;DHT22;3478;51.462;7.338;2023-07-22T00:18:28;14.30;99.90
6879;DHT22;3478;51.462;7.338;2023-07-22T00:23:31;14.30;99.90
6879;DHT22;3478;51.462;7.338;2023-07-22T00:28:33;14.40;99.90
6879;DHT22;3478;51.462;7.338;2023-07-22T00:33:36;14.30;99.90
6879;DHT22;3478;51.462;7.338;2023-07-22T00:38:38;14.30;99.90
6879;DHT22;3478;51.462;7.338;2023-07-22T00:43:40;14.30;99.90
6879;DHT22;3478;51.462;7.338;2023-07-22T00:48:43;14.20;99.90
6879;DHT22;3478;51.462;7.338;2023-07-22T00:53:46;14.20;99.90
6879;DHT22;3478;51.462;7.338;2023-07-22T00:58:47;14.20;99.90
6879;DHT22;3478;51.462;7.338;2023-07-22T01:03:51;14.20;99.90
6879;DHT22;3478;51.462;7.338;2023-07-22T01:08:53;14.20;99.90
6879;DHT22;3478;51.462;7.338;2023-07-22T01:13:54;14.20;99.90
6879;DHT22;3478;51.462;7.338;2023-07-22T01:19:01;14.30;99.90
6879;DHT22;3478;51.462;7.338;2023-07-22T01:24:06;14.30;99.90
6879;DHT22;3478;51.462;7.338;2023-07-22T01:29:08;14.20;99.90
6879;DHT22;3478;51.462;7.338;2023-07-22T01:34:10;14.20;99.90
6879;DHT22;3478;51.462;7.338;2023-07-22T01:39:14;14.10;99.90
6879;DHT22;3478;51.462;7.338;2023-07-22T01:44:16;14.00;99.90
6879;DHT22;3478;51.462;7.338;2023-07-22T01:49:18;14.00;99.90
6879;DHT22;3478;51.462;7.338;2023-07-22T01:54:21;14.00;99.90
6879;DHT22;3478;51.462;7.338;2023-07-22T01:59:23;14.00;99.90
6879;DHT22;3478;51.462;7.338;2023-07-22T02:04:25;14.00;99.90
6879;DHT22;3478;51.462;7.338;2023-07-22T02:09:28;14.00;99.90
6879;DHT22;3478;51.462;7.338;2023-07-22T02:14:30;14.00;99.90
6879;DHT22;3478;51.462;7.338;2023-07-22T02:19:32;14.00;99.90
6879;DHT22;3478;51.462;7.338;2023-07-22T02:24:35;14.00;99.90
6879;DHT22;3478;51.462;7.338;2023-07-22T02:29:37;14.10;99.90
6879;DHT22;3478;51.462;7.338;2023-07-22T02:34:38;14.10;99.90
6879;DHT22;3478;51.462;7.338;2023-07-22T02:39:41;14.10;99.90
6879;DHT22;3478;51.462;7.338;2023-07-22T02:44:43;14.20;99.90
6879;DHT22;3478;51.462;7.338;2023-07-22T02:49:45;14.30;99.90
6879;DHT22;3478;51.462;7.338;2023-07-22T02:55:07;14.40;99.90
6879;DHT22;3478;51.462;7.338;2023-07-22T03:00:09;14.40;99.90
6879;DHT22;3478;51.462;7.338;2023-07-22T03:05:13;14.50;99.90
6879;DHT22;3478;51.462;7.338;2023-07-22T03:10:16;14.60;99.90
6879;DHT22;3478;51.462;7.338;2023-07-22T03:15:17;14.60;99.90
6879;DHT22;3478;51.462;7.338;2023-07-22T03:20:19;14.60;99.90
6879;DHT22;3478;51.462;7.338;2023-07-22T03:25:23;14.60;99.90
6879;DHT22;3478;51.462;7.338;2023-07-22T03:30:25;14.60;99.90
6879;DHT22;3478;51.462;7.338;2023-07-22T03:35:27;14.60;99.90
6879;DHT22;3478;51.462;7.338;2023-07-22T03:40:30;14.60;99.90
6879;DHT22;3478;51.462;7.338;2023-07-22T03:45:33;14.60;99.90
6879;DHT22;3478;51.462;7.338;2023-07-22T03:50:35;14.70;99.90
6879;DHT22;3478;51.462;7.338;2023-07-22T03:55:38;14.70;99.90
6879;DHT22;3478;51.462;7.338;2023-07-22T04:00:40;14.80;99.90
6879;DHT22;3478;51.462;7.338;2023-07-22T04:05:41;14.90;99.90
6879;DHT22;3478;51.462;7.338;2023-07-22T04:10:52;15.00;99.90
6879;DHT22;3478;51.462;7.338;2023-07-22T04:15:54;15.00;99.90
6879;DHT22;3478;51.462;7.338;2023-07-22T04:20:56;15.00;99.90
6879;DHT22;3478;51.462;7.338;2023-07-22T04:26:02;15.00;99.90
6879;DHT22;3478;51.462;7.338;2023-07-22T04:31:05;15.00;99.90
6879;DHT22;3478;51.462;7.338;2023-07-22T04:36:07;15.20;99.90
6879;DHT22;3478;51.462;7.338;2023-07-22T04:41:10;15.10;99.90
6879;DHT22;3478;51.462;7.338;2023-07-22T04:46:12;15.20;99.90
6879;DHT22;3478;51.462;7.338;2023-07-22T04:51:14;15.30;99.90
6879;DHT22;3478;51.462;7.338;2023-07-22T04:56:17;15.30;99.90
6879;DHT22;3478;51.462;7.338;2023-07-22T05:01:19;15.30;99.90
6879;DHT22;3478;51.462;7.338;2023-07-22T05:06:21;15.30;99.90
6879;DHT22;3478;51.462;7.338;2023-07-22T05:11:25;15.30;99.90
6879;DHT22;3478;51.462;7.338;2023-07-22T05:16:27;15.40;99.90
6879;DHT22;3478;51.462;7.338;2023-07-22T05:21:29;15.60;99.90
6879;DHT22;3478;51.462;7.338;2023-07-22T05:26:32;15.60;99.90
6879;DHT22;3478;51.462;7.338;2023-07-22T05:31:34;15.70;99.90
6879;DHT22;3478;51.462;7.338;2023-07-22T05:36:36;15.80;99.90
6879;DHT22;3478;51.462;7.338;2023-07-22T05:41:39;15.90;99.90
6879;DHT22;3478;51.462;7.338;2023-07-22T05:46:41;16.00;99.90
6879;DHT22;3478;51.462;7.338;2023-07-22T05:51:43;16.10;99.90
6879;DHT22;3478;51.462;7.338;2023-07-22T05:56:46;16.10;99.90
6879;DHT22;3478;51.462;7.338;2023-07-22T06:01:48;16.20;99.90
6879;DHT22;3478;51.462;7.338;2023-07-22T06:06:49;16.40;99.90
6879;DHT22;3478;51.462;7.338;2023-07-22T06:11:52;16.60;99.90
6879;DHT22;3478;51.462;7.338;2023-07-22T06:16:54;16.70;99.90
6879;DHT22;3478;51.462;7.338;2023-07-22T06:21:56;17.00;99.90
6879;DHT22;3478;51.462;7.338;2023-07-22T06:26:59;17.10;99.90
6879;DHT22;3478;51.462;7.338;2023-07-22T06:32:02;17.10;99.90
6879;DHT22;3478;51.462;7.338;2023-07-22T06:37:04;17.10;99.90
6879;DHT22;3478;51.462;7.338;2023-07-22T06:42:07;16.90;99.90
6879;DHT22;3478;51.462;7.338;2023-07-22T06:47:09;17.00;99.90
6879;DHT22;3478;51.462;7.338;2023-07-22T06:52:11;17.20;99.90
6879;DHT22;3478;51.462;7.338;2023-07-22T06:57:15;17.30;99.90
6879;DHT22;3478;51.462;7.338;2023-07-22T07:02:17;17.50;99.90
6879;DHT22;3478;51.462;7.338;2023-07-22T07:07:18;17.50;99.90
6879;DHT22;3478;51.462;7.338;2023-07-22T07:12:22;17.60;99.90
6879;DHT22;3478;51.462;7.338;2023-07-22T07:17:24;17.80;99.90
6879;DHT22;3478;51.462;7.338;2023-07-22T07:22:25;18.00;99.90
6879;DHT22;3478;51.462;7.338;2023-07-22T07:27:29;17.90;99.90
6879;DHT22;3478;51.462;7.338;2023-07-22T07:32:30;17.80;99.90
6879;DHT22;3478;51.462;7.338;2023-07-22T07:37:32;17.90;99.90
6879;DHT22;3478;51.462;7.338;2023-07-22T07:42:35;18.00;99.90
6879;DHT22;3478;51.462;7.338;2023-07-22T07:47:37;18.00;99.90
6879;DHT22;3478;51.462;7.338;2023-07-22T07:52:39;18.30;99.90
6879;DHT22;3478;51.462;7.338;2023-07-22T07:57:42;18.50;99.90
6879;DHT22;3478;51.462;7.338;2023-07-22T08:02:44;18.50;99.90
6879;DHT22;3478;51.462;7.338;2023-07-22T08:07:46;18.50;99.90
6879;DHT22;3478;51.462;7.338;2023-07-22T08:12:50;18.70;99.90
6879;DHT22;3478;51.462;7.338;2023-07-22T08:17:51;18.90;99.90
6879;DHT22;3478;51.462;7.338;2023-07-22T08:22:53;18.80;99.90
6879;DHT22;3478;51.462;7.338;2023-07-22T08:27:56;19.00;99.90
6879;DHT22;3478;51.462;7.338;2023-07-22T08:51:06;19.10;99.90
6879;DHT22;3478;51.462;7.338;2023-07-22T08:56:08;19.50;99.90
6879;DHT22;3478;51.462;7.338;2023-07-22T09:01:11;19.80;99.90
6879;DHT22;3478;51.462;7.338;2023-07-22T09:06:14;19.90;99.90
6879;DHT22;3478;51.462;7.338;2023-07-22T09:11:16;20.10;99.90
6879;DHT22;3478;51.462;7.338;2023-07-22T09:16:21;20.20;99.90
6879;DHT22;3478;51.462;7.338;2023-07-22T09:21:24;20.50;99.90
6879;DHT22;3478;51.462;7.338;2023-07-22T09:26:32;20.50;99.90
6879;DHT22;3478;51.462;7.338;2023-07-22T09:31:48;21.00;99.90
6879;DHT22;3478;51.462;7.338;2023-07-22T09:36:52;21.30;99.90
6879;DHT22;3478;51.462;7.338;2023-07-22T09:41:55;21.10;99.50
6879;DHT22;3478;51.462;7.338;2023-07-22T09:47:06;21.00;99.70
6879;DHT22;3478;51.462;7.338;2023-07-22T09:52:11;20.90;98.90
6879;DHT22;3478;51.462;7.338;2023-07-22T09:57:14;20.60;98.90
6879;DHT22;3478;51.462;7.338;2023-07-22T10:02:18;21.00;99.40
6879;DHT22;3478;51.462;7.338;2023-07-22T10:07:22;21.20;97.80
6879;DHT22;3478;51.462;7.338;2023-07-22T10:12:25;21.70;96.60
6879;DHT22;3478;51.462;7.338;2023-07-22T10:17:29;21.90;95.60
6879;DHT22;3478;51.462;7.338;2023-07-22T10:22:35;22.30;95.30
6879;DHT22;3478;51.462;7.338;2023-07-22T10:27:37;21.90;95.90
6879;DHT22;3478;51.462;7.338;2023-07-22T10:32:42;22.20;94.70
6879;DHT22;3478;51.462;7.338;2023-07-22T10:37:46;22.20;94.00
6879;DHT22;3478;51.462;7.338;2023-07-22T10:43:00;22.00;94.70
6879;DHT22;3478;51.462;7.338;2023-07-22T10:48:06;21.90;95.10
6879;DHT22;3478;51.462;7.338;2023-07-22T10:53:19;21.80;95.10
6879;DHT22;3478;51.462;7.338;2023-07-22T10:58:21;22.30;93.30
6879;DHT22;3478;51.462;7.338;2023-07-22T11:03:25;22.40;93.20
6879;DHT22;3478;51.462;7.338;2023-07-22T11:08:39;22.80;92.40
6879;DHT22;3478;51.462;7.338;2023-07-22T11:13:42;23.80;91.50
6879;DHT22;3478;51.462;7.338;2023-07-22T11:18:44;23.00;90.80
6879;DHT22;3478;51.462;7.338;2023-07-22T11:23:47;23.40;92.00
6879;DHT22;3478;51.462;7.338;2023-07-22T11:28:49;23.20;89.50
6879;DHT22;3478;51.462;7.338;2023-07-22T11:33:53;23.10;88.90
6879;DHT22;3478;51.462;7.338;2023-07-22T11:39:03;23.70;85.20
6879;DHT22;3478;51.462;7.338;2023-07-22T11:44:05;24.40;88.00
6879;DHT22;3478;51.462;7.338;2023-07-22T11:49:09;24.60;81.90
6879;DHT22;3478;51.462;7.338;2023-07-22T11:54:12;24.80;79.00
6879;DHT22;3478;51.462;7.338;2023-07-22T11:59:16;24.60;78.00
6879;DHT22;3478;51.462;7.338;2023-07-22T12:04:17;24.00;78.00
6879;DHT22;3478;51.462;7.338;2023-07-22T12:09:21;24.50;81.50
6879;DHT22;3478;51.462;7.338;2023-07-22T12:14:23;25.10;80.10
6879;DHT22;3478;51.462;7.338;2023-07-22T12:19:27;24.80;80.40
6879;DHT22;3478;51.462;7.338;2023-07-22T12:24:30;25.40;77.30
6879;DHT22;3478;51.462;7.338;2023-07-22T12:29:32;25.40;76.60
6879;DHT22;3478;51.462;7.338;2023-07-22T12:34:34;24.80;76.50
6879;DHT22;3478;51.462;7.338;2023-07-22T12:39:38;24.80;76.80
6879;DHT22;3478;51.462;7.338;2023-07-22T12:44:40;24.90;78.40
6879;DHT22;3478;51.462;7.338;2023-07-22T12:49:41;26.00;72.20
6879;DHT22;3478;51.462;7.338;2023-07-22T12:54:45;26.20;69.60
6879;DHT22;3478;51.462;7.338;2023-07-22T12:59:47;25.80;70.60
6879;DHT22;3478;51.462;7.338;2023-07-22T13:04:49;25.40;71.10
6879;DHT22;3478;51.462;7.338;2023-07-22T13:09:52;25.50;66.70
6879;DHT22;3478;51.462;7.338;2023-07-22T13:14:57;25.30;65.20
6879;DHT22;3478;51.462;7.338;2023-07-22T13:19:59;25.80;67.60
6879;DHT22;3478;51.462;7.338;2023-07-22T13:25:02;25.80;67.50
6879;DHT22;3478;51.462;7.338;2023-07-22T13:30:06;26.20;63.80
6879;DHT22;3478;51.462;7.338;2023-07-22T13:35:08;26.50;63.30
6879;DHT22;3478;51.462;7.338;2023-07-22T13:40:12;26.20;63.80
6879;DHT22;3478;51.462;7.338;2023-07-22T13:45:14;26.40;64.10
6879;DHT22;3478;51.462;7.338;2023-07-22T13:50:16;26.10;65.00
6879;DHT22;3478;51.462;7.338;2023-07-22T13:55:20;26.60;64.10
6879;DHT22;3478;51.462;7.338;2023-07-22T14:00:22;26.60;62.50
6879;DHT22;3478;51.462;7.338;2023-07-22T14:05:23;26.30;62.90
6879;DHT22;3478;51.462;7.338;2023-07-22T14:10:28;27.00;61.10
6879;DHT22;3478;51.462;7.338;2023-07-22T14:15:30;27.30;59.00
6879;DHT22;3478;51.462;7.338;2023-07-22T14:20:32;27.00;59.20
6879;DHT22;3478;51.462;7.338;2023-07-22T14:25:35;27.30;59.40
6879;DHT22;3478;51.462;7.338;2023-07-22T14:30:37;26.90;61.60
6879;DHT22;3478;51.462;7.338;2023-07-22T14:35:39;27.30;57.40
6879;DHT22;3478;51.462;7.338;2023-07-22T14:40:42;27.60;56.50
6879;DHT22;3478;51.462;7.338;2023-07-22T14:45:44;28.00;56.00
6879;DHT22;3478;51.462;7.338;2023-07-22T14:50:46;28.90;54.40
6879;DHT22;3478;51.462;7.338;2023-07-22T14:55:49;27.60;54.30
6879;DHT22;3478;51.462;7.338;2023-07-22T15:00:51;26.70;54.70
6879;DHT22;3478;51.462;7.338;2023-07-22T15:05:53;26.60;53.90
6879;DHT22;3478;51.462;7.338;2023-07-22T15:10:56;27.10;52.50
6879;DHT22;3478;51.462;7.338;2023-07-22T15:15:58;27.90;54.20
6879;DHT22;3478;51.462;7.338;2023-07-22T15:20:59;28.00;51.50
6879;DHT22;3478;51.462;7.338;2023-07-22T15:26:03;26.70;52.40
6879;DHT22;3478;51.462;7.338;2023-07-22T15:31:04;25.80;54.50
6879;DHT22;3478;51.462;7.338;2023-07-22T15:36:06;25.50;54.90
6879;DHT22;3478;51.462;7.338;2023-07-22T15:41:10;25.90;54.40
6879;DHT22;3478;51.462;7.338;2023-07-22T15:46:12;25.90;55.80
6879;DHT22;3478;51.462;7.338;2023-07-22T15:51:14;26.20;56.70
6879;DHT22;3478;51.462;7.338;2023-07-22T15:56:17;26.80;55.70
6879;DHT22;3478;51.462;7.338;2023-07-22T16:01:19;27.20;54.50
6879;DHT22;3478;51.462;7.338;2023-07-22T16:06:21;26.30;55.50
6879;DHT22;3478;51.462;7.338;2023-07-22T16:11:24;26.30;55.60
6879;DHT22;3478;51.462;7.338;2023-07-22T16:16:26;26.20;56.30
6879;DHT22;3478;51.462;7.338;2023-07-22T16:21:27;25.70;57.00
6879;DHT22;3478;51.462;7.338;2023-07-22T16:26:30;26.00;56.90
6879;DHT22;3478;51.462;7.338;2023-07-22T16:31:32;25.90;58.40
6879;DHT22;3478;51.462;7.338;2023-07-22T16:36:34;25.70;57.90
6879;DHT22;3478;51.462;7.338;2023-07-22T16:41:38;25.80;57.10
6879;DHT22;3478;51.462;7.338;2023-07-22T16:46:39;25.90;58.10
6879;DHT22;3478;51.462;7.338;2023-07-22T16:51:41;24.90;58.40
6879;DHT22;3478;51.462;7.338;2023-07-22T16:56:46;24.50;59.20
6879;DHT22;3478;51.462;7.338;2023-07-22T17:01:48;24.30;60.40
6879;DHT22;3478;51.462;7.338;2023-07-22T17:06:49;24.10;61.20
6879;DHT22;3478;51.462;7.338;2023-07-22T17:11:53;24.20;62.10
6879;DHT22;3478;51.462;7.338;2023-07-22T17:16:54;23.90;61.70
6879;DHT22;3478;51.462;7.338;2023-07-22T17:21:56;23.70;62.40
6879;DHT22;3478;51.462;7.338;2023-07-22T17:26:59;23.60;63.00
6879;DHT22;3478;51.462;7.338;2023-07-22T17:32:02;23.70;63.60
6879;DHT22;3478;51.462;7.338;2023-07-22T17:37:04;23.60;64.10
6879;DHT22;3478;51.462;7.338;2023-07-22T17:42:07;23.10;64.70
6879;DHT22;3478;51.462;7.338;2023-07-22T17:47:09;22.80;65.20
6879;DHT22;3478;51.462;7.338;2023-07-22T17:52:11;22.50;66.50
6879;DHT22;3478;51.462;7.338;2023-07-22T17:57:14;22.50;67.90
6879;DHT22;3478;51.462;7.338;2023-07-22T18:02:15;22.50;67.40
6879;DHT22;3478;51.462;7.338;2023-07-22T18:07:17;22.40;67.70
6879;DHT22;3478;51.462;7.338;2023-07-22T18:12:21;22.30;68.30
6879;DHT22;3478;51.462;7.338;2023-07-22T18:17:23;22.00;69.70
6879;DHT22;3478;51.462;7.338;2023-07-22T18:22:25;21.70;68.90
6879;DHT22;3478;51.462;7.338;2023-07-22T18:27:29;21.80;70.50
6879;DHT22;3478;51.462;7.338;2023-07-22T18:32:31;21.50;70.10
6879;DHT22;3478;51.462;7.338;2023-07-22T18:37:33;21.50;71.50
6879;DHT22;3478;51.462;7.338;2023-07-22T18:42:36;21.40;71.30
6879;DHT22;3478;51.462;7.338;2023-07-22T18:47:38;21.30;73.00
6879;DHT22;3478;51.462;7.338;2023-07-22T18:52:40;21.10;73.40
6879;DHT22;3478;51.462;7.338;2023-07-22T18:57:43;21.00;73.40
6879;DHT22;3478;51.462;7.338;2023-07-22T19:02:45;21.00;73.50
6879;DHT22;3478;51.462;7.338;2023-07-22T19:07:47;21.00;74.50
6879;DHT22;3478;51.462;7.338;2023-07-22T19:12:50;20.80;74.40
6879;DHT22;3478;51.462;7.338;2023-07-22T19:17:52;20.80;74.80
6879;DHT22;3478;51.462;7.338;2023-07-22T19:22:53;20.80;75.40
6879;DHT22;3478;51.462;7.338;2023-07-22T19:27:57;20.70;75.30
6879;DHT22;3478;51.462;7.338;2023-07-22T19:32:58;20.60;76.10
6879;DHT22;3478;51.462;7.338;2023-07-22T19:38:00;20.50;76.70
6879;DHT22;3478;51.462;7.338;2023-07-22T19:43:03;20.50;76.30
6879;DHT22;3478;51.462;7.338;2023-07-22T19:48:05;20.50;76.00
6879;DHT22;3478;51.462;7.338;2023-07-22T19:53:07;20.50;76.80
6879;DHT22;3478;51.462;7.338;2023-07-22T19:58:10;20.50;77.10
6879;DHT22;3478;51.462;7.338;2023-07-22T20:03:12;20.40;77.20
6879;DHT22;3478;51.462;7.338;2023-07-22T20:08:14;20.40;77.60
6879;DHT22;3478;51.462;7.338;2023-07-22T20:13:17;20.30;78.30
6879;DHT22;3478;51.462;7.338;2023-07-22T20:18:19;20.30;79.30
6879;DHT22;3478;51.462;7.338;2023-07-22T20:23:21;20.20;80.00
6879;DHT22;3478;51.462;7.338;2023-07-22T20:28:24;20.10;81.40
6879;DHT22;3478;51.462;7.338;2023-07-22T20:33:27;20.00;83.50
6879;DHT22;3478;51.462;7.338;2023-07-22T20:38:30;19.90;84.00
6879;DHT22;3478;51.462;7.338;2023-07-22T20:43:34;19.90;86.50
6879;DHT22;3478;51.462;7.338;2023-07-22T20:48:35;19.80;86.00
6879;DHT22;3478;51.462;7.338;2023-07-22T20:53:37;19.60;89.70
6879;DHT22;3478;51.462;7.338;2023-07-22T20:58:40;19.50;91.60
6879;DHT22;3478;51.462;7.338;2023-07-22T21:03:42;19.40;92.40
6879;DHT22;3478;51.462;7.338;2023-07-22T21:08:44;19.30;94.00
6879;DHT22;3478;51.462;7.338;2023-07-22T21:13:48;19.30;96.80
6879;DHT22;3478;51.462;7.338;2023-07-22T21:18:50;19.30;99.30
6879;DHT22;3478;51.462;7.338;2023-07-22T21:23:51;19.30;99.90
6879;DHT22;3478;51.462;7.338;2023-07-22T21:28:55;19.20;99.90
6879;DHT22;3478;51.462;7.338;2023-07-22T21:33:56;19.20;99.90
6879;DHT22;3478;51.462;7.338;2023-07-22T21:38:58;19.10;99.90
6879;DHT22;3478;51.462;7.338;2023-07-22T21:44:01;19.00;99.90
6879;DHT22;3478;51.462;7.338;2023-07-22T21:49:03;19.00;99.90
6879;DHT22;3478;51.462;7.338;2023-07-22T21:54:05;18.90;99.90
6879;DHT22;3478;51.462;7.338;2023-07-22T21:59:08;18.80;99.90
6879;DHT22;3478;51.462;7.338;2023-07-22T22:04:11;18.80;99.90
6879;DHT22;3478;51.462;7.338;2023-07-22T22:09:13;18.70;99.90
6879;DHT22;3478;51.462;7.338;2023-07-22T22:14:16;18.50;99.90
6879;DHT22;3478;51.462;7.338;2023-07-22T22:19:18;18.30;99.90
6879;DHT22;3478;51.462;7.338;2023-07-22T22:24:20;18.20;99.90
6879;DHT22;3478;51.462;7.338;2023-07-22T22:29:24;18.20;99.90
6879;DHT22;3478;51.462;7.338;2023-07-22T22:34:25;18.10;99.90
6879;DHT22;3478;51.462;7.338;2023-07-22T22:39:27;18.10;99.90
6879;DHT22;3478;51.462;7.338;2023-07-22T22:44:30;18.10;99.90
6879;DHT22;3478;51.462;7.338;2023-07-22T22:49:32;18.10;99.90
6879;DHT22;3478;51.462;7.338;2023-07-22T22:54:34;18.00;99.90
6879;DHT22;3478;51.462;7.338;2023-07-22T22:59:37;18.00;99.90
6879;DHT22;3478;51.462;7.338;2023-07-22T23:04:39;18.00;99.90
6879;DHT22;3478;51.462;7.338;2023-07-22T23:09:41;17.90;99.90
6879;DHT22;3478;51.462;7.338;2023-07-22T23:14:44;17.80;99.90
6879;DHT22;3478;51.462;7.338;2023-07-22T23:19:49;17.80;99.90
6879;DHT22;3478;51.462;7.338;2023-07-22T23:24:51;17.80;99.90
6879;DHT22;3478;51.462;7.338;2023-07-22T23:29:54;17.70;99.90
6879;DHT22;3478;51.462;7.338;2023-07-22T23:34:56;17.70;99.90
6879;DHT22;3478;51.462;7.338;2023-07-22T23:40:00;17.70;99.90
6879;DHT22;3478;51.462;7.338;2023-07-22T23:45:03;17.70;99.90
6879;DHT22;3478;51.462;7.338;2023-07-22T23:50:06;17.70;99.90
6879;DHT22;3478;51.462;7.338;2023-07-22T23:55:09;17.60;99.90
